EDDV Airport Information

Runway Information
Runway 09C Length 2559 ft width 74 ft
Elevation 178 ft Threshold 214 ft Heading 92
Runway 27C Length 2559 ft Width 74 ft
Elevation 174 ft Threshold 541 ft Heading 272
Runway 09R Length 7677 ft width 148 ft
Elevation 172 ft Threshold ft Heading 93
Runway 27L Length 7677 ft Width 148 ft
Elevation 179 ft Threshold ft Heading 273
Runway 09L Length 12467 ft width 148 ft
Elevation 167 ft Threshold 984 ft Heading 93
Runway 27R Length 12467 ft Width 148 ft
Elevation 169 ft Threshold 984 ft Heading 273
Airport Frequencies
Type APP Name DIRECTOR Frequency 119.6 MHZ
Type ATIS Name ATIS Frequency 132.125 MHZ
Type GND Name GND Frequency 121.95 MHZ
Type INFO Name BREMEN INF Frequency 119.825 MHZ
Type RDR Name BREMEN RAD Frequency 131.325 MHZ
Type TWR Name TWR Frequency 120.175 MHZ
Airport Navaids
Type NDB Name Hannover Frequency 320 KHZ
Type DME Name Hannover Frequency 113950 KHZ
Type NDB Name Hannover Frequency 332 KHZ
Type DME Name Hannover Frequency 116900 KHZ
Type NDB Name Hannover Frequency 358 KHZ
Airport Weather Information & NOTAM
ADDS - METARS form results

(1655 UTC 29 June 2022)
Data provider http://aviationweather.gov/metar/data/
 
METAR text: EDDV 291650Z AUTO 11007KT 070V180 CAVOK 25/11 Q1014 NOSIG
Conditions at: EDDV (HANNOVER , DE) observed 1650 UTC 29 June 2022
Temperature: 25.0°C (77°F)
Dewpoint: 11.0°C (52°F) [RH = 41%]
Pressure (altimeter): 29.94 inches Hg (1014.0 mb)
Winds: from the ESE (110 degrees) at 8 MPH (7 knots; 3.6 m/s)
Visibility: 6 or more miles (10+ km)
Ceiling: ceiling and visibility are OK
Clouds: unknown
Weather: no significant weather observed at this time

METAR text: EDDV 291620Z AUTO 11009KT 080V160 CAVOK 26/13 Q1014 NOSIG
Conditions at: EDDV (HANNOVER , DE) observed 1620 UTC 29 June 2022
Temperature: 26.0°C (79°F)
Dewpoint: 13.0°C (55°F) [RH = 45%]
Pressure (altimeter): 29.94 inches Hg (1014.0 mb)
Winds: from the ESE (110 degrees) at 10 MPH (9 knots; 4.6 m/s)
Visibility: 6 or more miles (10+ km)
Ceiling: ceiling and visibility are OK
Clouds: unknown
Weather: no significant weather observed at this time

Forecast for: EDDV (HANNOVER , DE)
Text: TAF EDDV 291100Z 2912/3012 11010KT CAVOK
Forecast period: 1200 to 1900 UTC 29 June 2022
Forecast type: FROM: standard forecast or significant change
Winds: from the ESE (110 degrees) at 12 MPH (10 knots; 5.1 m/s)
Visibility: 6 or more miles (10+ km)
Ceiling: unknown
Clouds: missing
Weather: NSW  (no significant weather)
Text: BECMG 2919/2921 08005KT
Forecast period: 1900 UTC 29 June 2022 to 1200 UTC 30 June 2022
Forecast type: BECOMING: Conditions expected to become as follows by 2100 UTC 29 June 2022
Winds: from the E (80 degrees) at 6 MPH (5 knots; 2.6 m/s)
Visibility: 6 or more miles (10+ km)
Ceiling: unknown
Clouds: missing
Weather: NSW  (no significant weather)